ADDS TAF Board (Experimental) INFO Settings
IDs: Format: Expanded Condensed

KBOS - Boston/Logan Intl, MA, US

Issued at 1120 UTC 02 May 2016
Updated at: 1233 UTC 02 May 2016
Time1226Z 02/13Z 02/14Z 02/15Z 02/16Z 02/17Z 02/18Z 02/19Z 02/20Z 02/21Z 02/22Z 02/23Z 03/00Z 03/01Z
Type OBS PRVL PRVL PRVL PRVL PRVL PRVL PRVL PRVL PRVL PRVL PRVL PRVL PRVL
VIS 1 1 1 5 5 5 3 3 3 3 2 2 2 2
CIG 4 3 3 3 3 3 3 3 3 3 3 3 3 3
Cover OVC OVC OVC OVC OVC OVC OVC OVC OVC OVC OVC OVC OVC OVC
FltCat LIFR LIFR LIFR LIFR LIFR LIFR LIFR LIFR LIFR LIFR LIFR LIFR LIFR LIFR
WX BR BR BR BR BR BR -RA BR -RA BR -RA BR -RA BR BR BR BR BR
WDir 50 60 60 80 80 80 70 70 70 70 30 30 30 30
WSpd 11 6 6 5 5 5 6 6 6 6 4 4 4 4
WGst -- -- -- -- -- -- -- -- -- -- -- -- -- --
R04/22
XWnd -6 -4 -4 -4 -4 -4 -5 -5 -5 -5 -1 -1 -1 -1
HWnd 10 5 5 3 3 3 4 4 4 4 4 4 4 4
R09/27
XWnd 5 2 2 -0 -0 -0 1 1 1 1 3 3 3 3
HWnd 10 6 6 5 5 5 6 6 6 6 3 3 3 3
R14/32
XWnd 11 5 5 4 4 4 5 5 5 5 4 4 4 4
HWnd 3 3 3 4 4 4 3 3 3 3 -0 -0 -0 -0
R15/33
XWnd 11 6 6 4 4 4 5 5 5 5 4 4 4 4
HWnd 1 2 2 3 3 3 3 3 3 3 -1 -1 -1 -1

NOTE: TEMPO conditions in [brackets]. Keep in mind TEMPO conditions might be better (lower impact) than prevailing conditions.

Raw TAF
KBOS 021120Z 0212/0318 06006KT 1SM BR OVC003
  FM021500 08005KT 5SM BR OVC003
  FM021800 07006KT 3SM -RA BR OVC003
  FM022200 03004KT 2SM BR OVC003
  FM030300 VRB03KT P6SM OVC003


Raw METAR
KBOS 021226Z 05011KT 1SM BR OVC004 08/07 A3005 RMK AO2 SFC VIS 3
KBOS 021154Z 05011G16KT 1/2SM R04R/6000VP6000FT BR OVC004 08/07 A3005 RMK AO2 SFC VIS 1 1/4 SLP176 60001 70012 T00780072 10078 20067 58002
KBOS 021054Z 05009KT 1/2SM BR OVC004 08/07 A3006 RMK AO2 SFC VIS 1 1/2 DZE49 SLP180 P0000 T00780072
KBOS 021008Z 05009KT 1/2SM -DZ BR OVC004 08/07 A3006 RMK AO2 SFC VIS 1 1/2 P0000
KBOS 020954Z 05009KT 6SM -DZ BR OVC004 08/07 A3006 RMK AO2 DZB43 SLP178 P0000 T00780072

METAR Board
Radar Display
Forecast Discussion

TAF Board Legend

Potential Impact
Threat None Slight Moderate High
Visibility (sm) ≥5.1 5.1>X≥3 3>X≥1 <1
Ceiling (100 ft) ≥30.1 30.1>X≥10 10>X≥5 <5
Wind Speed (kt) <10 10≤X<20 20≤X<30 ≥30
Wind Gust (kt) <15 15≤X<25 25≤X<35 ≥35
Weather No Wx Reported VCTS,-TS,-FZRA,SN TS,FZRA +TS,+FZRA,+SN